createdAt,value
2018-10-17T00:00:31.510Z,15.30
2018-10-17T00:02:59.278Z,15.37
2018-10-17T00:05:26.941Z,14.03
2018-10-17T00:07:54.662Z,13.90
2018-10-17T00:10:22.358Z,13.43
2018-10-17T00:12:50.096Z,13.33
2018-10-17T00:15:17.808Z,13.27
2018-10-17T00:17:45.555Z,13.07
2018-10-17T00:20:13.330Z,14.57
2018-10-17T00:22:41.058Z,14.90
2018-10-17T00:25:08.835Z,12.57
2018-10-17T00:27:36.545Z,13.40
2018-10-17T00:30:05.979Z,13.83
2018-10-17T00:32:33.718Z,12.33
2018-10-17T00:35:01.364Z,12.60
2018-10-17T00:37:29.024Z,14.07
2018-10-17T00:39:56.705Z,14.90
2018-10-17T00:42:24.433Z,13.40
2018-10-17T00:44:52.144Z,14.43
2018-10-17T00:47:19.796Z,14.07
2018-10-17T00:49:47.508Z,13.67
2018-10-17T00:52:15.208Z,13.97
2018-10-17T00:54:42.910Z,13.83
2018-10-17T00:57:10.591Z,14.57
2018-10-17T00:59:38.255Z,16.57
2018-10-17T01:02:06.018Z,14.17
2018-10-17T01:04:33.732Z,12.47
2018-10-17T01:07:01.438Z,14.00
2018-10-17T01:09:29.180Z,12.67
2018-10-17T01:11:56.750Z,13.80
2018-10-17T01:14:24.452Z,13.60
2018-10-17T01:16:53.876Z,13.33
2018-10-17T01:19:21.600Z,12.93
2018-10-17T01:21:49.316Z,12.50
2018-10-17T01:24:17.013Z,13.47
2018-10-17T01:26:44.695Z,11.57
2018-10-17T01:29:12.485Z,12.60
2018-10-17T01:31:40.110Z,12.03
2018-10-17T01:34:07.828Z,12.17
2018-10-17T01:36:35.512Z,10.80
2018-10-17T01:39:04.213Z,12.37
2018-10-17T01:41:31.893Z,12.40
2018-10-17T01:43:59.601Z,12.90
2018-10-17T01:46:27.321Z,11.80
2018-10-17T01:48:55.391Z,12.00
2018-10-17T01:51:23.106Z,11.23
2018-10-17T01:53:51.681Z,11.00
2018-10-17T01:56:19.504Z,11.40
2018-10-17T01:58:47.577Z,11.33
2018-10-17T02:01:15.306Z,12.57
2018-10-17T02:03:42.995Z,11.13
2018-10-17T02:06:10.657Z,11.87
2018-10-17T02:08:38.410Z,13.50
2018-10-17T02:11:06.153Z,13.20
2018-10-17T02:13:33.831Z,12.97
2018-10-17T02:16:01.579Z,11.83
2018-10-17T02:18:29.293Z,13.60
2018-10-17T02:20:57.010Z,13.10
2018-10-17T02:23:24.657Z,12.30
2018-10-17T02:25:52.268Z,11.57
2018-10-17T02:28:19.973Z,12.33
2018-10-17T02:30:47.697Z,12.80
2018-10-17T02:33:15.395Z,11.97
2018-10-17T02:35:43.092Z,13.43
2018-10-17T02:38:10.810Z,12.43
2018-10-17T02:40:38.512Z,13.50
2018-10-17T02:43:06.272Z,14.67
2018-10-17T02:45:33.917Z,12.23
2018-10-17T02:48:01.714Z,12.93
2018-10-17T02:50:29.415Z,13.67
2018-10-17T02:52:57.146Z,13.83
2018-10-17T02:55:24.938Z,12.60
2018-10-17T02:57:52.687Z,13.70
2018-10-17T03:00:20.345Z,12.27
2018-10-17T03:02:48.049Z,12.40
2018-10-17T03:05:15.788Z,13.03
2018-10-17T03:07:43.468Z,11.67
2018-10-17T03:10:11.173Z,11.77
2018-10-17T03:12:38.956Z,11.93
2018-10-17T03:15:07.434Z,12.13
2018-10-17T03:17:35.260Z,12.30
2018-10-17T03:20:03.069Z,12.23
2018-10-17T03:22:30.805Z,12.43
2018-10-17T03:24:58.472Z,11.17
2018-10-17T03:27:26.239Z,10.30
2018-10-17T03:29:53.931Z,10.43
2018-10-17T03:32:21.744Z,11.90
2018-10-17T03:34:49.364Z,10.93
2018-10-17T03:37:17.176Z,12.30
2018-10-17T03:39:44.806Z,13.60
2018-10-17T03:42:12.541Z,12.23
2018-10-17T03:44:40.210Z,11.17
2018-10-17T03:47:07.948Z,14.13
2018-10-17T03:49:35.700Z,11.37
2018-10-17T03:52:03.782Z,13.00
2018-10-17T03:54:31.482Z,12.20
2018-10-17T03:56:59.175Z,11.83
2018-10-17T03:59:26.995Z,12.60
2018-10-17T04:01:54.627Z,13.63
2018-10-17T04:04:22.357Z,12.30
2018-10-17T04:06:50.072Z,11.10
2018-10-17T04:09:17.794Z,13.50
2018-10-17T04:11:45.485Z,11.10
2018-10-17T04:14:13.188Z,12.33
2018-10-17T04:16:40.857Z,11.57
2018-10-17T04:19:08.649Z,12.03
2018-10-17T04:21:36.306Z,12.07
2018-10-17T04:24:04.110Z,12.10
2018-10-17T04:26:31.848Z,12.23
2018-10-17T04:28:59.586Z,12.90
2018-10-17T04:31:27.375Z,13.43
2018-10-17T04:33:55.074Z,13.17
2018-10-17T04:36:22.907Z,13.03
2018-10-17T04:38:50.569Z,13.63
2018-10-17T04:41:18.357Z,14.57
2018-10-17T04:43:46.029Z,13.97
2018-10-17T04:46:13.819Z,15.80
2018-10-17T04:48:41.588Z,13.90
2018-10-17T04:51:10.595Z,14.53
2018-10-17T04:53:38.281Z,13.37
2018-10-17T04:56:05.999Z,15.10
2018-10-17T04:58:33.698Z,13.40
2018-10-17T05:01:01.465Z,13.50
2018-10-17T05:03:29.147Z,14.13
2018-10-17T05:05:57.172Z,14.17
2018-10-17T05:08:24.941Z,13.00
2018-10-17T05:10:52.651Z,13.57
2018-10-17T05:13:20.443Z,13.83
2018-10-17T05:15:48.178Z,14.40
2018-10-17T05:18:15.948Z,14.60
2018-10-17T05:20:43.660Z,13.83
2018-10-17T05:23:11.451Z,14.30
2018-10-17T05:25:39.150Z,14.43
2018-10-17T05:28:07.220Z,13.23
2018-10-17T05:30:35.306Z,12.93
2018-10-17T05:33:03.047Z,13.60
2018-10-17T05:35:30.817Z,15.70
2018-10-17T05:37:58.531Z,13.80
2018-10-17T05:40:26.293Z,15.03
2018-10-17T05:42:53.990Z,17.40
2018-10-17T05:45:21.667Z,15.53
2018-10-17T05:47:49.361Z,14.00
2018-10-17T05:50:17.057Z,18.47
2018-10-17T05:52:44.716Z,15.47
2018-10-17T05:55:12.504Z,14.40
2018-10-17T05:57:40.130Z,14.60
2018-10-17T06:00:08.217Z,14.90
2018-10-17T06:02:36.935Z,13.80
2018-10-17T06:05:05.624Z,15.87
2018-10-17T06:07:33.276Z,15.57
2018-10-17T06:10:01.035Z,14.27
2018-10-17T06:12:28.785Z,14.87
2018-10-17T06:14:56.494Z,19.33
2018-10-17T06:17:24.215Z,15.37
2018-10-17T06:19:51.962Z,17.50
2018-10-17T06:22:19.694Z,16.00
2018-10-17T06:24:47.409Z,18.40
2018-10-17T06:27:15.094Z,17.87
2018-10-17T06:29:42.695Z,15.27
2018-10-17T06:32:10.443Z,17.73
2018-10-17T06:34:38.290Z,17.40
2018-10-17T06:37:06.465Z,15.30
2018-10-17T06:39:34.224Z,16.03
2018-10-17T06:42:02.022Z,18.87
2018-10-17T06:44:29.774Z,15.63
2018-10-17T06:46:57.539Z,17.00
2018-10-17T06:49:25.275Z,16.63
2018-10-17T06:51:53.040Z,15.73
2018-10-17T06:54:20.798Z,16.23
2018-10-17T06:56:48.456Z,19.03
2018-10-17T06:59:16.223Z,16.80
2018-10-17T07:01:44.343Z,19.57
2018-10-17T07:04:12.488Z,17.60
2018-10-17T07:06:40.597Z,16.40
2018-10-17T07:09:09.569Z,20.00
2018-10-17T07:11:37.970Z,15.80
2018-10-17T07:14:06.095Z,16.73
2018-10-17T07:16:34.295Z,15.57
2018-10-17T07:19:04.220Z,16.03
2018-10-17T07:21:32.340Z,17.60
2018-10-17T07:24:00.332Z,16.77
2018-10-17T07:26:28.554Z,19.50
2018-10-17T07:28:56.739Z,14.63
2018-10-17T07:31:24.855Z,15.00
2018-10-17T07:33:52.762Z,16.03
2018-10-17T07:36:20.790Z,15.37
2018-10-17T07:38:48.573Z,16.20
2018-10-17T07:41:16.675Z,14.87
2018-10-17T07:43:44.638Z,15.40
2018-10-17T07:46:12.745Z,14.50
2018-10-17T07:48:40.764Z,14.07
2018-10-17T07:51:08.526Z,14.53
2018-10-17T07:53:36.345Z,15.57
2018-10-17T07:56:04.210Z,12.90
2018-10-17T07:58:32.265Z,13.97
2018-10-17T08:01:02.585Z,13.07
2018-10-17T08:03:30.333Z,12.70
2018-10-17T08:05:58.030Z,15.57
2018-10-17T08:08:25.763Z,14.33
2018-10-17T08:10:53.461Z,15.00
2018-10-17T08:13:21.154Z,12.73
2018-10-17T08:15:48.806Z,12.13
2018-10-17T08:18:16.924Z,13.00
2018-10-17T08:20:44.669Z,11.33
2018-10-17T08:23:12.404Z,13.33
2018-10-17T08:25:40.117Z,13.67
2018-10-17T08:28:07.822Z,13.50
2018-10-17T08:30:35.483Z,12.63
2018-10-17T08:33:03.190Z,13.80
2018-10-17T08:35:30.983Z,13.53
2018-10-17T08:37:58.564Z,11.70
2018-10-17T08:40:26.266Z,12.33
2018-10-17T08:42:53.960Z,13.00
2018-10-17T08:45:21.976Z,14.97
2018-10-17T08:47:49.681Z,13.70
2018-10-17T08:50:17.511Z,11.60
2018-10-17T08:52:45.220Z,12.20
2018-10-17T08:55:12.891Z,12.50
2018-10-17T08:57:40.626Z,12.10
2018-10-17T09:00:08.524Z,11.60
2018-10-17T09:02:36.260Z,12.40
2018-10-17T09:05:04.117Z,12.47
2018-10-17T09:07:31.891Z,11.43
2018-10-17T09:09:59.760Z,12.83
2018-10-17T09:12:27.775Z,15.38
2018-10-17T09:14:55.508Z,14.38
2018-10-17T09:17:25.080Z,12.63
2018-10-17T09:19:53.687Z,12.75
2018-10-17T09:22:21.513Z,13.60
2018-10-17T09:24:49.010Z,12.65
2018-10-17T09:27:16.769Z,11.75
2018-10-17T09:29:46.428Z,12.45
2018-10-17T09:32:14.138Z,13.50
2018-10-17T09:34:41.825Z,12.98
2018-10-17T09:37:09.497Z,15.23
2018-10-17T09:39:37.218Z,13.05
2018-10-17T09:42:04.967Z,13.75
2018-10-17T09:44:32.660Z,15.43
2018-10-17T09:47:00.348Z,13.50
2018-10-17T09:49:28.033Z,14.20
2018-10-17T09:51:55.768Z,13.68
2018-10-17T09:54:23.545Z,14.68
2018-10-17T09:56:51.241Z,15.05
2018-10-17T09:59:18.935Z,14.53
2018-10-17T10:01:50.090Z,14.50
2018-10-17T10:04:18.089Z,15.58
2018-10-17T10:06:45.989Z,14.70
2018-10-17T10:09:13.656Z,14.00
2018-10-17T10:11:41.386Z,16.07
2018-10-17T10:14:09.166Z,13.65
2018-10-17T10:16:36.941Z,14.45
2018-10-17T10:19:05.417Z,18.90
2018-10-17T10:21:33.119Z,14.68
2018-10-17T10:24:01.209Z,15.88
2018-10-17T10:26:29.099Z,14.73
2018-10-17T10:28:56.781Z,15.65
2018-10-17T10:31:24.695Z,15.72
2018-10-17T10:33:52.502Z,15.53
2018-10-17T10:36:20.208Z,14.28
2018-10-17T10:38:47.953Z,15.43
2018-10-17T10:41:15.755Z,15.38
2018-10-17T10:43:43.654Z,14.68
2018-10-17T10:46:11.396Z,15.85
2018-10-17T10:48:39.074Z,13.78
2018-10-17T10:51:07.356Z,15.75
2018-10-17T10:53:35.103Z,14.40
2018-10-17T10:56:03.123Z,13.53
2018-10-17T10:58:30.946Z,15.63
2018-10-17T11:00:59.497Z,15.00
2018-10-17T11:03:27.193Z,14.78
2018-10-17T11:05:54.979Z,15.85
2018-10-17T11:08:23.150Z,18.35
2018-10-17T11:10:52.081Z,19.85
2018-10-17T11:13:19.876Z,17.02
2018-10-17T11:15:47.549Z,17.92
2018-10-17T11:18:15.179Z,17.90
2018-10-17T11:20:42.965Z,16.73
2018-10-17T11:23:11.279Z,19.00
2018-10-17T11:25:38.938Z,20.35
2018-10-17T11:28:06.584Z,23.30
2018-10-17T11:30:34.554Z,24.00
2018-10-17T11:33:02.335Z,21.00
2018-10-17T11:35:30.038Z,18.65
2018-10-17T11:37:57.814Z,19.85
2018-10-17T11:40:25.634Z,26.00
2018-10-17T11:42:53.244Z,24.45
2018-10-17T11:45:20.961Z,25.65
2018-10-17T11:47:48.816Z,20.77
2018-10-17T11:50:16.442Z,21.77
2018-10-17T11:52:46.447Z,19.20
2018-10-17T11:55:14.134Z,19.90
2018-10-17T11:57:41.782Z,21.75
2018-10-17T12:00:11.210Z,21.97
2018-10-17T12:02:38.904Z,20.00
2018-10-17T12:05:09.232Z,22.85
2018-10-17T12:07:36.653Z,20.92
2018-10-17T12:10:05.066Z,26.62
2018-10-17T12:12:32.842Z,20.45
2018-10-17T12:15:00.653Z,22.17
2018-10-17T12:17:28.380Z,23.83
2018-10-17T12:19:56.202Z,24.45
2018-10-17T12:22:23.783Z,22.17
2018-10-17T12:24:51.442Z,24.85
2018-10-17T12:27:19.373Z,25.40
2018-10-17T12:29:47.167Z,23.10
2018-10-17T12:32:14.932Z,22.52
2018-10-17T12:34:42.836Z,27.65
2018-10-17T12:37:10.635Z,23.73
2018-10-17T12:39:38.398Z,26.75
2018-10-17T12:42:06.010Z,23.92
2018-10-17T12:44:33.787Z,20.25
2018-10-17T12:47:01.528Z,25.15
2018-10-17T12:49:29.192Z,25.08
2018-10-17T12:51:56.859Z,26.27
2018-10-17T12:54:25.033Z,20.27
2018-10-17T12:56:52.708Z,24.63
2018-10-17T12:59:20.602Z,20.05
2018-10-17T13:01:48.195Z,21.80
2018-10-17T13:04:15.887Z,21.30
2018-10-17T13:06:43.601Z,22.75
2018-10-17T13:09:12.083Z,23.15
2018-10-17T13:11:39.840Z,20.57
2018-10-17T13:14:07.726Z,22.20
2018-10-17T13:16:35.496Z,26.93
2018-10-17T13:19:03.335Z,26.80
2018-10-17T13:21:31.125Z,27.35
2018-10-17T13:23:59.304Z,23.50
2018-10-17T13:26:27.009Z,23.85
2018-10-17T13:28:54.687Z,25.60
2018-10-17T13:31:22.604Z,24.85
2018-10-17T13:33:50.263Z,31.57
2018-10-17T13:36:17.955Z,26.17
2018-10-17T13:38:45.598Z,25.45
2018-10-17T13:41:13.376Z,24.20
2018-10-17T13:43:41.046Z,20.97
2018-10-17T13:46:08.732Z,21.07
2018-10-17T13:48:36.441Z,25.52
2018-10-17T13:51:04.296Z,21.80
2018-10-17T13:53:31.949Z,27.60
2018-10-17T13:55:59.653Z,24.47
2018-10-17T13:58:29.922Z,30.57
2018-10-17T14:00:57.655Z,31.45
2018-10-17T14:03:25.329Z,33.50
2018-10-17T14:05:53.113Z,34.10
2018-10-17T14:08:20.793Z,31.37
2018-10-17T14:10:48.533Z,34.75
2018-10-17T14:13:16.315Z,30.50
2018-10-17T14:15:44.086Z,32.40
2018-10-17T14:18:11.874Z,29.87
2018-10-17T14:20:40.853Z,29.48
2018-10-17T14:23:09.618Z,30.15
2018-10-17T14:25:37.501Z,31.10
2018-10-17T14:28:05.490Z,31.90
2018-10-17T14:30:34.339Z,24.37
2018-10-17T14:33:02.519Z,24.00
2018-10-17T14:35:30.382Z,26.42
2018-10-17T14:37:58.227Z,27.37
2018-10-17T14:40:25.950Z,26.35
2018-10-17T14:42:53.729Z,26.20
2018-10-17T14:45:21.504Z,26.30
2018-10-17T14:47:49.226Z,28.98
2018-10-17T14:50:17.039Z,21.60
2018-10-17T14:52:44.888Z,25.85
2018-10-17T14:55:12.759Z,21.73
2018-10-17T14:57:40.636Z,21.87
2018-10-17T15:00:12.035Z,21.00
2018-10-17T15:02:40.388Z,25.05
2018-10-17T15:05:08.440Z,22.30
2018-10-17T15:07:36.133Z,26.12
2018-10-17T15:10:04.095Z,27.70
2018-10-17T15:12:31.838Z,23.57
2018-10-17T15:14:59.667Z,25.75
2018-10-17T15:17:27.775Z,24.87
2018-10-17T15:19:55.578Z,29.23
2018-10-17T15:22:23.371Z,26.75
2018-10-17T15:24:51.122Z,32.33
2018-10-17T15:27:19.093Z,27.62
2018-10-17T15:29:46.908Z,24.65
2018-10-17T15:32:14.633Z,28.60
2018-10-17T15:34:42.580Z,28.55
2018-10-17T15:37:10.477Z,33.08
2018-10-17T15:39:38.268Z,28.98
2018-10-17T15:42:06.001Z,25.20
2018-10-17T15:44:33.731Z,26.20
2018-10-17T15:47:01.523Z,25.62
2018-10-17T15:49:29.621Z,29.87
2018-10-17T15:51:57.809Z,35.65
2018-10-17T15:54:26.643Z,37.78
2018-10-17T15:56:54.855Z,39.18
2018-10-17T15:59:22.695Z,43.98
2018-10-17T16:01:50.484Z,44.33
2018-10-17T16:04:18.097Z,48.92
2018-10-17T16:06:46.279Z,46.88
2018-10-17T16:09:14.068Z,49.50
2018-10-17T16:11:41.924Z,53.17
2018-10-17T16:14:10.009Z,54.90
2018-10-17T16:16:37.936Z,48.73
2018-10-17T16:19:05.689Z,48.95
2018-10-17T16:21:33.483Z,50.10
2018-10-17T16:24:01.437Z,51.25
2018-10-17T16:26:29.204Z,50.83
2018-10-17T16:28:57.068Z,54.18
2018-10-17T16:31:24.770Z,51.23
2018-10-17T16:33:52.670Z,49.50
2018-10-17T16:36:20.750Z,56.23
2018-10-17T16:38:48.453Z,55.70
2018-10-17T16:41:16.255Z,54.35
2018-10-17T16:43:43.958Z,54.97
2018-10-17T16:46:11.732Z,48.07
2018-10-17T16:48:40.204Z,51.97
2018-10-17T16:51:07.952Z,53.13
2018-10-17T16:53:36.263Z,51.23
2018-10-17T16:56:04.284Z,48.80
2018-10-17T16:58:32.483Z,46.87
2018-10-17T17:01:00.235Z,55.37
2018-10-17T17:03:28.062Z,44.77
2018-10-17T17:05:55.878Z,50.77
2018-10-17T17:08:24.576Z,48.70
2018-10-17T17:10:52.371Z,46.27
2018-10-17T17:13:21.960Z,47.37
2018-10-17T17:15:49.859Z,46.13
2018-10-17T17:18:17.637Z,48.57
2018-10-17T17:20:45.373Z,46.97
2018-10-17T17:23:14.006Z,48.67
2018-10-17T17:25:42.068Z,52.63
2018-10-17T17:28:09.796Z,44.17
2018-10-17T17:30:37.856Z,44.90
2018-10-17T17:33:06.325Z,48.63
2018-10-17T17:35:34.059Z,48.80
2018-10-17T17:38:01.780Z,47.80
2018-10-17T17:40:29.575Z,44.23
2018-10-17T17:42:57.329Z,41.83
2018-10-17T17:45:25.073Z,46.97
2018-10-17T17:47:53.188Z,46.07
2018-10-17T17:50:21.210Z,48.17
2018-10-17T17:52:49.915Z,45.97
2018-10-17T17:55:20.990Z,48.13
2018-10-17T17:57:49.354Z,47.53
2018-10-17T18:00:17.419Z,46.27
2018-10-17T18:02:45.401Z,54.67
2018-10-17T18:05:13.593Z,44.73
2018-10-17T18:07:41.499Z,51.00
2018-10-17T18:10:09.702Z,54.23
2018-10-17T18:12:37.712Z,48.53
2018-10-17T18:15:06.401Z,57.00
2018-10-17T18:17:34.407Z,48.63
2018-10-17T18:20:02.817Z,58.57
2018-10-17T18:22:30.819Z,49.53
2018-10-17T18:24:58.536Z,51.97
2018-10-17T18:27:26.398Z,50.83
2018-10-17T18:29:54.153Z,54.53
2018-10-17T18:32:21.837Z,55.83
2018-10-17T18:34:49.590Z,52.73
2018-10-17T18:37:17.369Z,47.90
2018-10-17T18:39:45.205Z,53.97
2018-10-17T18:42:13.362Z,54.03
2018-10-17T18:44:41.077Z,61.20
2018-10-17T18:47:09.741Z,52.43
2018-10-17T18:49:37.509Z,52.67
2018-10-17T18:52:05.575Z,56.73
2018-10-17T18:54:33.241Z,56.73
2018-10-17T18:57:00.923Z,64.77
2018-10-17T18:59:28.923Z,52.90
2018-10-17T19:01:56.622Z,62.07
2018-10-17T19:04:24.297Z,60.50
2018-10-17T19:06:52.044Z,64.87
2018-10-17T19:09:19.696Z,63.37
2018-10-17T19:11:47.391Z,57.47
2018-10-17T19:14:15.045Z,56.77
2018-10-17T19:16:42.762Z,57.97
2018-10-17T19:19:10.680Z,52.83
2018-10-17T19:21:40.634Z,55.03
2018-10-17T19:24:08.362Z,60.10
2018-10-17T19:26:36.187Z,64.63
2018-10-17T19:29:04.219Z,58.93
2018-10-17T19:31:32.045Z,60.93
2018-10-17T19:34:00.133Z,63.17
2018-10-17T19:36:27.948Z,58.80
2018-10-17T19:38:57.551Z,62.77
2018-10-17T19:41:25.387Z,60.47
2018-10-17T19:43:53.228Z,68.97
2018-10-17T19:46:20.987Z,58.93
2018-10-17T19:48:49.029Z,60.53
2018-10-17T19:51:16.836Z,63.50
2018-10-17T19:53:44.537Z,61.37
2018-10-17T19:56:13.184Z,64.27
2018-10-17T19:58:41.425Z,61.03
2018-10-17T20:01:09.105Z,60.57
2018-10-17T20:03:36.791Z,68.77
2018-10-17T20:06:04.646Z,69.97
2018-10-17T20:08:32.336Z,60.07
2018-10-17T20:11:00.019Z,63.27
2018-10-17T20:13:27.712Z,65.03
2018-10-17T20:15:55.473Z,68.27
2018-10-17T20:18:23.625Z,69.93
2018-10-17T20:20:51.307Z,63.13
2018-10-17T20:23:19.846Z,61.50
2018-10-17T20:25:47.575Z,61.97
2018-10-17T20:28:18.027Z,71.13
2018-10-17T20:30:45.844Z,72.03
2018-10-17T20:33:13.782Z,67.93
2018-10-17T20:35:41.474Z,71.10
2018-10-17T20:38:09.108Z,73.50
2018-10-17T20:40:37.865Z,65.87
2018-10-17T20:43:05.609Z,69.13
2018-10-17T20:45:33.405Z,71.77
2018-10-17T20:48:01.478Z,69.67
2018-10-17T20:50:29.204Z,81.43
2018-10-17T20:52:56.975Z,67.50
2018-10-17T20:55:24.687Z,80.93
2018-10-17T20:57:52.371Z,77.40
2018-10-17T21:00:20.013Z,79.50
2018-10-17T21:02:47.757Z,77.07
2018-10-17T21:05:15.459Z,77.83
2018-10-17T21:07:43.169Z,78.23
2018-10-17T21:10:10.883Z,73.97
2018-10-17T21:12:38.516Z,77.83
2018-10-17T21:15:07.035Z,87.57
2018-10-17T21:17:34.672Z,79.10
2018-10-17T21:20:02.363Z,81.20
2018-10-17T21:22:30.038Z,79.73
2018-10-17T21:24:57.721Z,82.83
2018-10-17T21:27:25.366Z,87.37
2018-10-17T21:29:53.055Z,79.20
2018-10-17T21:32:22.021Z,78.20
2018-10-17T21:34:49.693Z,80.17
2018-10-17T21:37:17.342Z,83.90
2018-10-17T21:39:45.046Z,84.97
2018-10-17T21:42:12.704Z,84.43
2018-10-17T21:44:40.342Z,83.93
2018-10-17T21:47:08.060Z,81.10
2018-10-17T21:49:35.714Z,83.80
2018-10-17T21:52:03.530Z,78.70
2018-10-17T21:54:31.177Z,74.07
2018-10-17T21:56:58.836Z,72.47
2018-10-17T21:59:26.584Z,75.17
2018-10-17T22:01:54.325Z,76.87
2018-10-17T22:04:22.004Z,71.60
2018-10-17T22:06:49.753Z,69.77
2018-10-17T22:09:17.419Z,66.43
2018-10-17T22:11:45.090Z,69.30
2018-10-17T22:14:13.470Z,68.90
2018-10-17T22:16:46.669Z,74.87
2018-10-17T22:19:14.477Z,63.13
2018-10-17T22:21:42.075Z,66.97
2018-10-17T22:24:09.774Z,63.13
2018-10-17T22:26:37.489Z,64.03
2018-10-17T22:29:05.271Z,63.50
2018-10-17T22:31:32.996Z,68.87
2018-10-17T22:34:00.631Z,69.40
2018-10-17T22:36:28.292Z,72.13
2018-10-17T22:38:55.951Z,68.23
2018-10-17T22:41:23.713Z,61.73
2018-10-17T22:43:51.445Z,61.20
2018-10-17T22:46:19.194Z,66.93
2018-10-17T22:48:46.914Z,62.10
2018-10-17T22:51:14.632Z,56.97
2018-10-17T22:53:42.285Z,59.47
2018-10-17T22:56:10.028Z,64.50
2018-10-17T22:58:37.654Z,67.07
2018-10-17T23:01:05.923Z,68.30
2018-10-17T23:03:33.501Z,61.17
2018-10-17T23:06:01.085Z,59.37
2018-10-17T23:08:28.758Z,60.57
2018-10-17T23:10:56.460Z,62.63
2018-10-17T23:13:24.105Z,64.60
2018-10-17T23:15:51.864Z,56.77
2018-10-17T23:18:19.533Z,61.30
2018-10-17T23:20:47.174Z,63.33
2018-10-17T23:23:14.911Z,58.97
2018-10-17T23:25:42.637Z,56.93
2018-10-17T23:28:10.323Z,64.83
2018-10-17T23:30:37.886Z,58.67
2018-10-17T23:33:05.575Z,61.87
2018-10-17T23:35:33.242Z,64.93
2018-10-17T23:38:00.945Z,58.97
2018-10-17T23:40:28.582Z,56.10
2018-10-17T23:42:56.256Z,58.73
2018-10-17T23:45:23.906Z,61.47
2018-10-17T23:47:51.635Z,61.17
2018-10-17T23:50:19.230Z,61.80
2018-10-17T23:52:46.900Z,61.30
2018-10-17T23:55:14.582Z,59.17
2018-10-17T23:57:42.288Z,55.30
